Time;durP1;ratioP1;P1;durP2;ratioP2;P2;SDS_P1;SDS_P2;PMS_P1;PMS_P2;Temp;Humidity;BMP_temperature;BMP_pressure;BME280_temperature;BME280_humidity;BME280_pressure;Samples;Min_cycle;Max_cycle;Signal;HPM_P1;HPM_P2
2021/10/20 00:01:35;;;;;;;19.98;12.00;;;;;;;;;;5093544;28;20046;-66
2021/10/20 00:04:02;;;;;;;20.63;12.60;;;;;;;;;;5093779;28;20032;-66
2021/10/20 00:06:28;;;;;;;21.20;13.23;;;;;;;;;;5093412;28;20028;-66
2021/10/20 00:08:54;;;;;;;21.50;12.68;;;;;;;;;;5093296;28;20079;-67
2021/10/20 00:11:20;;;;;;;18.77;11.48;;;;;;;;;;5093497;28;20048;-67
2021/10/20 00:13:47;;;;;;;20.40;12.23;;;;;;;;;;5092993;28;20054;-67
2021/10/20 00:16:13;;;;;;;20.58;13.75;;;;;;;;;;5093733;28;20020;-67
2021/10/20 00:18:45;;;;;;;21.13;12.63;;;;;;;;;;5093510;28;20028;-67
2021/10/20 00:21:11;;;;;;;18.25;11.68;;;;;;;;;;5093087;28;20020;-67
2021/10/20 00:23:37;;;;;;;19.50;12.20;;;;;;;;;;5093366;28;20082;-67
2021/10/20 00:26:03;;;;;;;15.82;9.90;;;;;;;;;;5093017;28;20028;-67
2021/10/20 00:28:30;;;;;;;14.75;9.82;;;;;;;;;;5093320;28;20429;-67
2021/10/20 00:30:56;;;;;;;18.40;10.80;;;;;;;;;;5093359;28;20384;-67
2021/10/20 00:33:22;;;;;;;18.45;11.18;;;;;;;;;;5092924;28;20035;-67
2021/10/20 00:35:48;;;;;;;39.83;11.82;;;;;;;;;;5093583;28;20486;-67
2021/10/20 00:38:14;;;;;;;18.00;10.48;;;;;;;;;;5093219;28;20103;-66
2021/10/20 00:40:40;;;;;;;15.15;9.98;;;;;;;;;;5093141;28;20020;-67
2021/10/20 00:43:07;;;;;;;18.92;11.75;;;;;;;;;;5093426;28;20021;-67
2021/10/20 00:45:35;;;;;;;21.52;11.80;;;;;;;;;;5093724;28;20028;-67
2021/10/20 00:48:01;;;;;;;23.40;12.60;;;;;;;;;;5092869;28;20043;-67
2021/10/20 00:50:27;;;;;;;17.77;10.60;;;;;;;;;;5093185;28;20508;-67
2021/10/20 00:52:54;;;;;;;18.42;10.95;;;;;;;;;;5093084;28;20068;-67
2021/10/20 00:55:20;;;;;;;17.52;11.32;;;;;;;;;;5095208;28;20024;-67
2021/10/20 00:57:47;;;;;;;19.17;11.73;;;;;;;;;;5096982;28;20097;-67
2021/10/20 01:00:14;;;;;;;20.45;11.75;;;;;;;;;;5096963;28;20073;-67
2021/10/20 01:02:41;;;;;;;20.25;11.50;;;;;;;;;;5096488;28;20024;-67
2021/10/20 01:05:08;;;;;;;17.17;10.77;;;;;;;;;;5096910;28;20495;-67
2021/10/20 01:07:35;;;;;;;16.90;9.90;;;;;;;;;;5096508;28;20048;-67
2021/10/20 01:10:01;;;;;;;25.63;15.10;;;;;;;;;;5096297;28;20024;-67
2021/10/20 01:12:28;;;;;;;30.83;18.30;;;;;;;;;;5096668;28;20445;-67
2021/10/20 01:14:54;;;;;;;25.63;15.63;;;;;;;;;;5096627;28;20093;-67
2021/10/20 01:17:20;;;;;;;26.77;16.00;;;;;;;;;;5096178;28;20024;-67
2021/10/20 01:19:46;;;;;;;23.70;15.45;;;;;;;;;;5096606;28;20054;-67
2021/10/20 01:22:13;;;;;;;22.75;14.65;;;;;;;;;;5096171;28;20020;-67
2021/10/20 01:24:40;;;;;;;19.85;12.13;;;;;;;;;;5096451;28;20070;-67
2021/10/20 01:27:07;;;;;;;19.80;11.23;;;;;;;;;;5095062;28;20024;-67
2021/10/20 01:29:33;;;;;;;17.50;10.93;;;;;;;;;;5095863;28;20032;-67
2021/10/20 01:32:00;;;;;;;16.38;10.27;;;;;;;;;;5096421;28;20031;-67
2021/10/20 01:34:26;;;;;;;17.98;11.00;;;;;;;;;;5096426;28;20021;-67
2021/10/20 01:36:53;;;;;;;16.35;10.50;;;;;;;;;;5094484;28;20021;-66
2021/10/20 01:39:20;;;;;;;14.90;10.50;;;;;;;;;;5096154;28;20077;-66
2021/10/20 01:41:47;;;;;;;18.40;9.68;;;;;;;;;;5096099;28;20024;-67
2021/10/20 01:44:14;;;;;;;20.83;10.38;;;;;;;;;;5095677;28;20561;-67
2021/10/20 01:46:40;;;;;;;17.88;10.38;;;;;;;;;;5096076;28;20036;-67
2021/10/20 01:49:07;;;;;;;16.42;10.18;;;;;;;;;;5096075;28;20028;-67
2021/10/20 01:51:33;;;;;;;16.52;10.90;;;;;;;;;;5095431;28;20020;-67
2021/10/20 01:53:59;;;;;;;13.32;9.57;;;;;;;;;;5095774;28;20082;-67
2021/10/20 01:56:25;;;;;;;14.90;9.75;;;;;;;;;;5096094;28;20393;-67
2021/10/20 01:58:51;;;;;;;16.77;9.32;;;;;;;;;;5095577;28;20384;-66
2021/10/20 02:01:18;;;;;;;16.38;10.00;;;;;;;;;;5095735;28;20016;-67
2021/10/20 02:03:45;;;;;;;21.13;11.38;;;;;;;;;;5095729;28;20027;-67
2021/10/20 02:06:13;;;;;;;17.48;11.05;;;;;;;;;;5095124;28;20031;-67
2021/10/20 02:08:41;;;;;;;18.38;11.18;;;;;;;;;;5095256;28;20404;-67
2021/10/20 02:11:07;;;;;;;22.98;12.45;;;;;;;;;;5094233;28;20032;-67
2021/10/20 02:13:34;;;;;;;15.88;10.43;;;;;;;;;;5095042;28;20028;-67
2021/10/20 02:16:03;;;;;;;20.17;12.52;;;;;;;;;;5095357;28;20024;-67
2021/10/20 02:18:29;;;;;;;19.05;11.35;;;;;;;;;;5093691;28;20028;-67
2021/10/20 02:20:55;;;;;;;19.50;10.70;;;;;;;;;;5095539;28;20357;-67
2021/10/20 02:23:21;;;;;;;15.82;10.52;;;;;;;;;;5095274;28;20480;-67
2021/10/20 02:25:48;;;;;;;17.58;11.35;;;;;;;;;;5094814;28;20024;-67
2021/10/20 02:28:14;;;;;;;15.27;10.38;;;;;;;;;;5095101;28;20031;-67
2021/10/20 02:30:41;;;;;;;19.90;11.15;;;;;;;;;;5095376;28;20064;-67
2021/10/20 02:33:08;;;;;;;22.67;13.63;;;;;;;;;;5094710;28;20480;-67
2021/10/20 02:35:34;;;;;;;34.40;18.95;;;;;;;;;;5095161;28;20035;-67
2021/10/20 02:38:00;;;;;;;34.20;18.77;;;;;;;;;;5095196;28;20016;-66
2021/10/20 02:40:27;;;;;;;33.10;17.27;;;;;;;;;;5094702;28;20476;-67
2021/10/20 02:42:53;;;;;;;27.90;15.90;;;;;;;;;;5094932;28;20089;-67
2021/10/20 02:45:20;;;;;;;25.70;15.20;;;;;;;;;;5094941;28;20064;-67
2021/10/20 02:47:46;;;;;;;22.00;13.55;;;;;;;;;;5094457;28;20024;-67
2021/10/20 02:50:13;;;;;;;20.10;13.27;;;;;;;;;;5094763;28;20024;-67
2021/10/20 02:52:39;;;;;;;20.60;12.65;;;;;;;;;;5094721;28;20558;-67
2021/10/20 02:55:06;;;;;;;17.02;10.88;;;;;;;;;;5094344;28;20047;-67
2021/10/20 02:57:32;;;;;;;17.25;10.40;;;;;;;;;;5094638;28;20023;-67
2021/10/20 02:59:58;;;;;;;16.85;11.60;;;;;;;;;;5094593;28;20032;-66
2021/10/20 03:02:25;;;;;;;17.00;11.55;;;;;;;;;;5094166;28;20496;-67
2021/10/20 03:04:51;;;;;;;16.20;9.25;;;;;;;;;;5094422;28;20055;-67
2021/10/20 03:07:17;;;;;;;14.65;10.00;;;;;;;;;;5094192;28;20020;-66
2021/10/20 03:09:44;;;;;;;14.63;9.15;;;;;;;;;;5094038;28;20036;-67
2021/10/20 03:12:10;;;;;;;15.65;10.82;;;;;;;;;;5094310;28;20024;-67
2021/10/20 03:14:36;;;;;;;15.05;8.65;;;;;;;;;;5094312;28;20553;-67
2021/10/20 03:17:02;;;;;;;18.40;10.52;;;;;;;;;;5093396;28;20051;-67
2021/10/20 03:19:28;;;;;;;14.75;9.43;;;;;;;;;;5094444;28;20480;-67
2021/10/20 03:21:55;;;;;;;15.27;10.73;;;;;;;;;;5093757;28;20020;-67
2021/10/20 03:24:21;;;;;;;19.35;11.80;;;;;;;;;;5094170;28;20035;-66
2021/10/20 03:26:47;;;;;;;17.58;11.05;;;;;;;;;;5094137;28;20443;-67
2021/10/20 03:29:13;;;;;;;17.98;10.98;;;;;;;;;;5093843;28;20032;-67
2021/10/20 03:31:40;;;;;;;21.70;13.30;;;;;;;;;;5094230;28;20090;-67
2021/10/20 03:34:06;;;;;;;17.83;11.32;;;;;;;;;;5092677;28;20034;-67
2021/10/20 03:36:32;;;;;;;18.13;11.65;;;;;;;;;;5093550;28;20468;-67
2021/10/20 03:38:58;;;;;;;16.83;10.77;;;;;;;;;;5093898;28;20468;-67
2021/10/20 03:41:25;;;;;;;18.00;10.68;;;;;;;;;;5093844;28;20137;-67
2021/10/20 03:43:51;;;;;;;15.25;10.05;;;;;;;;;;5093430;28;20396;-67
2021/10/20 03:46:17;;;;;;;16.80;10.68;;;;;;;;;;5092448;28;20035;-67
2021/10/20 03:48:43;;;;;;;17.20;10.90;;;;;;;;;;5093695;28;20035;-67
2021/10/20 03:51:09;;;;;;;19.75;11.55;;;;;;;;;;5093428;28;20472;-67
2021/10/20 03:53:35;;;;;;;17.40;11.43;;;;;;;;;;5093674;28;20039;-67
2021/10/20 03:56:02;;;;;;;16.13;10.00;;;;;;;;;;5093932;28;20426;-67
2021/10/20 03:58:28;;;;;;;19.77;10.95;;;;;;;;;;5093405;28;20464;-66
2021/10/20 04:00:54;;;;;;;19.25;11.32;;;;;;;;;;5093501;28;20024;-67
2021/10/20 04:03:21;;;;;;;19.05;11.23;;;;;;;;;;5093530;28;20016;-68
2021/10/20 04:05:47;;;;;;;22.58;14.70;;;;;;;;;;5091854;28;20103;-67
2021/10/20 04:08:13;;;;;;;24.15;14.10;;;;;;;;;;5093582;28;20106;-67
2021/10/20 04:10:40;;;;;;;22.40;14.27;;;;;;;;;;5093552;28;20040;-67
2021/10/20 04:13:06;;;;;;;20.67;14.65;;;;;;;;;;5093173;28;20379;-67
2021/10/20 04:15:32;;;;;;;24.27;13.93;;;;;;;;;;5093437;28;20082;-67
2021/10/20 04:17:59;;;;;;;27.85;16.80;;;;;;;;;;5093025;28;20438;-67
2021/10/20 04:20:25;;;;;;;27.13;17.48;;;;;;;;;;5093436;28;20081;-66
2021/10/20 04:22:51;;;;;;;26.83;16.58;;;;;;;;;;5093631;28;20028;-66
2021/10/20 04:25:18;;;;;;;22.10;13.40;;;;;;;;;;5093309;28;20071;-67
2021/10/20 04:27:45;;;;;;;18.90;11.82;;;;;;;;;;5093544;28;20077;-67
2021/10/20 04:30:12;;;;;;;17.85;11.20;;;;;;;;;;5095852;28;20036;-67
2021/10/20 04:32:39;;;;;;;20.67;13.48;;;;;;;;;;5096900;28;20093;-66
2021/10/20 04:35:05;;;;;;;33.55;18.95;;;;;;;;;;5097481;28;20028;-66
2021/10/20 04:37:33;;;;;;;38.30;22.77;;;;;;;;;;5097266;28;20107;-66
2021/10/20 04:39:59;;;;;;;42.70;22.20;;;;;;;;;;5097089;28;20024;-66
2021/10/20 04:42:26;;;;;;;37.80;20.80;;;;;;;;;;5097216;28;20028;-66
2021/10/20 04:44:53;;;;;;;36.25;18.15;;;;;;;;;;5097214;28;20040;-66
2021/10/20 04:47:19;;;;;;;41.25;19.10;;;;;;;;;;5096605;28;20479;-67
2021/10/20 04:49:45;;;;;;;36.05;20.02;;;;;;;;;;5097118;28;20032;-67
2021/10/20 04:52:12;;;;;;;38.08;19.88;;;;;;;;;;5095766;28;20111;-67
2021/10/20 04:54:38;;;;;;;45.88;21.85;;;;;;;;;;5096578;28;20107;-66
2021/10/20 04:57:04;;;;;;;41.45;22.63;;;;;;;;;;5097030;28;20024;-66
2021/10/20 04:59:34;;;;;;;50.42;26.90;;;;;;;;;;5096900;28;20028;-69
2021/10/20 05:02:01;;;;;;;55.60;32.83;;;;;;;;;;5096515;28;20044;-66
2021/10/20 05:04:27;;;;;;;63.83;33.00;;;;;;;;;;5096753;28;20078;-66
2021/10/20 05:06:54;;;;;;;58.78;32.97;;;;;;;;;;5084942;28;20021;-66
2021/10/20 05:09:20;;;;;;;58.38;33.20;;;;;;;;;;5081575;28;20044;-66
2021/10/20 05:11:46;;;;;;;65.00;39.17;;;;;;;;;;5095147;28;20464;-67
2021/10/20 05:14:12;;;;;;;61.45;35.75;;;;;;;;;;5070867;28;20496;-71
2021/10/20 05:16:39;;;;;;;59.42;35.67;;;;;;;;;;5072450;28;20054;-73
2021/10/20 05:19:05;;;;;;;59.88;37.28;;;;;;;;;;5076380;28;20025;-71
2021/10/20 05:21:31;;;;;;;70.00;40.22;;;;;;;;;;5071396;28;20678;-68
2021/10/20 05:23:58;;;;;;;71.75;39.55;;;;;;;;;;5086771;28;20024;-70
2021/10/20 05:26:24;;;;;;;77.57;45.45;;;;;;;;;;5095436;28;20032;-69
2021/10/20 05:28:53;;;;;;;68.65;39.28;;;;;;;;;;5092540;28;20138;-70
2021/10/20 05:31:29;;;;;;;65.38;37.10;;;;;;;;;;5070090;28;20031;-70
2021/10/20 05:33:55;;;;;;;54.58;29.40;;;;;;;;;;5075287;28;20056;-70
2021/10/20 05:36:23;;;;;;;52.28;28.15;;;;;;;;;;5082165;28;20027;-69
2021/10/20 05:38:49;;;;;;;44.05;27.67;;;;;;;;;;5095093;28;20058;-68
2021/10/20 05:41:15;;;;;;;58.00;31.20;;;;;;;;;;5088873;28;20484;-69
2021/10/20 05:43:42;;;;;;;43.65;26.88;;;;;;;;;;5094113;28;20024;-69
2021/10/20 05:46:09;;;;;;;44.08;23.48;;;;;;;;;;5094644;28;20054;-70
2021/10/20 05:48:35;;;;;;;36.28;23.20;;;;;;;;;;5094543;28;20093;-70
2021/10/20 05:51:01;;;;;;;34.58;22.27;;;;;;;;;;5095106;28;20024;-72
2021/10/20 05:53:27;;;;;;;34.50;21.08;;;;;;;;;;5094123;28;20048;-70
2021/10/20 05:55:55;;;;;;;34.92;19.80;;;;;;;;;;5094751;28;20016;-71
2021/10/20 05:58:21;;;;;;;30.55;17.52;;;;;;;;;;5095121;28;20084;-70
2021/10/20 06:00:48;;;;;;;35.15;19.25;;;;;;;;;;5093247;28;20028;-69
2021/10/20 06:03:14;;;;;;;34.00;19.65;;;;;;;;;;5094674;28;20025;-69
2021/10/20 06:05:40;;;;;;;39.03;20.48;;;;;;;;;;5094402;28;20430;-71
2021/10/20 06:08:06;;;;;;;28.42;16.63;;;;;;;;;;5094792;28;20051;-72
2021/10/20 06:10:33;;;;;;;37.78;18.95;;;;;;;;;;5094448;28;20024;-70
2021/10/20 06:13:00;;;;;;;28.50;17.63;;;;;;;;;;5094877;28;20027;-69
2021/10/20 06:15:26;;;;;;;30.77;17.48;;;;;;;;;;5093517;28;20024;-72
2021/10/20 06:17:52;;;;;;;25.73;17.77;;;;;;;;;;5086104;28;20496;-70
2021/10/20 06:20:18;;;;;;;24.65;13.55;;;;;;;;;;5072357;28;20095;-71
2021/10/20 06:22:45;;;;;;;19.95;13.52;;;;;;;;;;5074131;28;20033;-72
2021/10/20 06:25:12;;;;;;;20.35;11.70;;;;;;;;;;5073152;28;20029;-80
2021/10/20 06:27:38;;;;;;;20.90;11.68;;;;;;;;;;5072442;28;20029;-72
2021/10/20 06:30:05;;;;;;;24.65;14.73;;;;;;;;;;5074367;28;20024;-72
2021/10/20 06:32:31;;;;;;;34.55;18.85;;;;;;;;;;5071315;28;20033;-73
2021/10/20 06:34:57;;;;;;;24.88;16.13;;;;;;;;;;5073040;28;20033;-72
2021/10/20 06:37:23;;;;;;;23.15;16.38;;;;;;;;;;5081747;28;20020;-74
2021/10/20 06:39:50;;;;;;;33.22;19.65;;;;;;;;;;5091562;28;20106;-75
2021/10/20 06:42:16;;;;;;;31.05;18.48;;;;;;;;;;5092168;28;20028;-74
2021/10/20 06:44:42;;;;;;;26.77;16.63;;;;;;;;;;5092338;28;20097;-74
2021/10/20 06:47:08;;;;;;;27.45;15.52;;;;;;;;;;5090612;28;20016;-75
2021/10/20 06:49:35;;;;;;;26.90;14.30;;;;;;;;;;5091790;28;20126;-73
2021/10/20 06:52:01;;;;;;;23.60;12.80;;;;;;;;;;5092572;28;20051;-71
2021/10/20 06:54:27;;;;;;;27.73;17.55;;;;;;;;;;5093726;28;20024;-72
2021/10/20 06:56:54;;;;;;;27.10;15.70;;;;;;;;;;5088094;28;20032;-71
2021/10/20 06:59:20;;;;;;;23.08;16.20;;;;;;;;;;5093071;28;20103;-74
2021/10/20 07:01:48;;;;;;;24.35;14.88;;;;;;;;;;5092098;28;20084;-74
2021/10/20 07:04:15;;;;;;;24.60;17.17;;;;;;;;;;5092454;28;20051;-73
2021/10/20 07:06:41;;;;;;;38.03;21.02;;;;;;;;;;5093881;28;20491;-74
2021/10/20 07:09:08;;;;;;;31.95;16.75;;;;;;;;;;5085306;28;20130;-73
2021/10/20 07:11:34;;;;;;;21.70;13.70;;;;;;;;;;5069705;28;20024;-75
2021/10/20 07:14:03;;;;;;;17.15;10.57;;;;;;;;;;5089033;28;20111;-71
2021/10/20 07:16:30;;;;;;;17.35;11.70;;;;;;;;;;5082987;28;20024;-72
2021/10/20 07:18:56;;;;;;;21.00;11.70;;;;;;;;;;5087932;28;20021;-72
2021/10/20 07:21:22;;;;;;;18.52;11.45;;;;;;;;;;5083536;28;20048;-71
2021/10/20 07:23:49;;;;;;;13.77;9.77;;;;;;;;;;5082015;28;20019;-72
2021/10/20 07:26:21;;;;;;;18.50;11.93;;;;;;;;;;5076220;28;20028;-70
2021/10/20 07:28:48;;;;;;;18.98;11.05;;;;;;;;;;5092512;28;20034;-72
2021/10/20 07:31:14;;;;;;;15.70;10.05;;;;;;;;;;5092910;28;20020;-66
2021/10/20 07:33:40;;;;;;;20.08;11.65;;;;;;;;;;5075300;28;20040;-74
2021/10/20 07:36:06;;;;;;;19.23;11.68;;;;;;;;;;5072572;28;20378;-69
2021/10/20 07:38:32;;;;;;;17.73;11.18;;;;;;;;;;5072094;28;20032;-68
2021/10/20 07:40:59;;;;;;;18.27;11.35;;;;;;;;;;5070433;28;20555;-67
2021/10/20 07:43:25;;;;;;;13.52;8.98;;;;;;;;;;5070435;28;20024;-69
2021/10/20 07:45:51;;;;;;;20.17;13.88;;;;;;;;;;5069730;28;20028;-67
2021/10/20 07:48:17;;;;;;;17.40;10.60;;;;;;;;;;5071086;28;20025;-68
2021/10/20 07:50:43;;;;;;;17.98;10.27;;;;;;;;;;5071283;28;20028;-69
2021/10/20 07:53:10;;;;;;;21.20;14.30;;;;;;;;;;5067343;28;20025;-65
2021/10/20 07:55:37;;;;;;;14.43;9.60;;;;;;;;;;5069372;28;20100;-64
2021/10/20 07:58:06;;;;;;;14.15;9.52;;;;;;;;;;5073805;28;20036;-65
2021/10/20 08:00:32;;;;;;;14.63;9.50;;;;;;;;;;5093298;28;20039;-66
2021/10/20 08:03:01;;;;;;;13.77;9.40;;;;;;;;;;5092255;28;20085;-65
2021/10/20 08:05:27;;;;;;;14.25;8.90;;;;;;;;;;5092754;28;20024;-65
2021/10/20 08:07:53;;;;;;;13.13;8.77;;;;;;;;;;5086612;28;20771;-66
2021/10/20 08:10:23;;;;;;;15.98;10.23;;;;;;;;;;5075294;28;20058;-65
2021/10/20 08:12:50;;;;;;;14.48;9.40;;;;;;;;;;5090598;28;20112;-66
2021/10/20 08:15:16;;;;;;;15.18;8.43;;;;;;;;;;5090629;28;20095;-66
2021/10/20 08:19:09;;;;;;;15.07;9.93;;;;;;;;;;5067896;28;20545;-76
2021/10/20 08:21:35;;;;;;;15.60;8.48;;;;;;;;;;5068079;28;20435;-76
2021/10/20 08:24:01;;;;;;;13.73;9.15;;;;;;;;;;5068459;28;20108;-74
2021/10/20 08:26:28;;;;;;;15.27;9.35;;;;;;;;;;5067199;28;20031;-75
2021/10/20 08:28:54;;;;;;;12.32;8.02;;;;;;;;;;5067712;28;20111;-77
2021/10/20 08:31:20;;;;;;;12.88;8.88;;;;;;;;;;5064679;28;20063;-73
2021/10/20 08:34:24;;;;;;;12.20;7.78;;;;;;;;;;5109753;27;20392;-74
2021/10/20 08:36:50;;;;;;;21.20;10.43;;;;;;;;;;5095836;28;20035;-70
2021/10/20 08:42:35;;;;;;;13.40;8.55;;;;;;;;;;5091249;28;20351;-71
2021/10/20 08:47:08;;;;;;;15.05;9.32;;;;;;;;;;5109366;27;20463;-74
2021/10/20 08:52:06;;;;;;;12.25;8.18;;;;;;;;;;5107889;27;20489;-70
2021/10/20 08:54:32;;;;;;;14.63;8.75;;;;;;;;;;5109448;28;20106;-68
2021/10/20 08:59:25;;;;;;;15.23;10.40;;;;;;;;;;5111001;27;20446;-73
2021/10/20 09:01:52;;;;;;;16.60;9.88;;;;;;;;;;5109740;28;20024;-74
2021/10/20 09:04:45;;;;;;;20.55;12.38;;;;;;;;;;5169975;27;20120;-72
2021/10/20 09:08:55;;;;;;;10.68;7.03;;;;;;;;;;5110054;27;20502;-71
2021/10/20 09:11:32;;;;;;;12.45;7.10;;;;;;;;;;5094880;28;20040;-68
2021/10/20 09:15:21;;;;;;;10.48;6.68;;;;;;;;;;5108585;27;20935;-77
2021/10/20 09:17:55;;;;;;;17.33;10.20;;;;;;;;;;5111123;28;20468;-72
2021/10/20 09:20:51;;;;;;;12.05;7.28;;;;;;;;;;5110247;27;20393;-70
2021/10/20 09:23:19;;;;;;;12.98;9.25;;;;;;;;;;5126727;28;20030;-71
2021/10/20 09:26:32;;;;;;;13.55;7.40;;;;;;;;;;5110597;27;20430;-70
2021/10/20 09:28:59;;;;;;;12.43;6.85;;;;;;;;;;5110451;28;20027;-70
2021/10/20 09:31:57;;;;;;;11.48;7.22;;;;;;;;;;5110154;27;20445;-73
2021/10/20 09:34:33;;;;;;;10.30;6.70;;;;;;;;;;5096337;28;20028;-74
2021/10/20 09:37:00;;;;;;;10.32;6.95;;;;;;;;;;5110333;28;20028;-72
2021/10/20 09:39:26;;;;;;;16.67;8.05;;;;;;;;;;5110404;28;20024;-72
2021/10/20 09:41:57;;;;;;;14.52;7.85;;;;;;;;;;5109263;28;20027;-73
2021/10/20 09:44:23;;;;;;;13.75;6.70;;;;;;;;;;5110537;28;20023;-72
2021/10/20 09:46:50;;;;;;;12.00;7.18;;;;;;;;;;5108734;28;20496;-71
2021/10/20 09:49:24;;;;;;;8.65;5.75;;;;;;;;;;5109148;28;20376;-77
2021/10/20 09:51:50;;;;;;;23.98;14.80;;;;;;;;;;5110059;28;20514;-76
2021/10/20 09:54:24;;;;;;;15.30;8.07;;;;;;;;;;5103799;28;20472;-77
2021/10/20 09:57:13;;;;;;;13.85;7.90;;;;;;;;;;5110303;27;20396;-77
2021/10/20 09:59:40;;;;;;;11.13;6.57;;;;;;;;;;5112983;28;20062;-79
2021/10/20 10:02:08;;;;;;;12.52;7.28;;;;;;;;;;5111576;28;20103;-75
2021/10/20 10:04:37;;;;;;;10.80;6.65;;;;;;;;;;5109763;28;20472;-72
2021/10/20 10:07:03;;;;;;;11.73;7.57;;;;;;;;;;5108609;28;20024;-72
2021/10/20 10:10:02;;;;;;;13.88;7.28;;;;;;;;;;5108216;27;20397;-72
2021/10/20 10:12:29;;;;;;;16.35;11.75;;;;;;;;;;5109561;28;20035;-72
2021/10/20 10:15:09;;;;;;;38.90;23.08;;;;;;;;;;5110078;28;20020;-72
2021/10/20 10:20:31;;;;;;;17.40;11.48;;;;;;;;;;5068506;28;20437;-73
2021/10/20 10:23:06;;;;;;;12.85;8.52;;;;;;;;;;5069639;28;20059;-73
2021/10/20 10:25:37;;;;;;;10.68;6.63;;;;;;;;;;5069791;28;20024;-73
2021/10/20 10:28:05;;;;;;;10.30;6.75;;;;;;;;;;5070235;28;20021;-73
2021/10/20 10:30:32;;;;;;;10.98;7.10;;;;;;;;;;5068974;28;20358;-73
2021/10/20 10:34:27;;;;;;;18.83;12.15;;;;;;;;;;5110428;27;20954;-72
2021/10/20 10:37:39;;;;;;;12.25;7.63;;;;;;;;;;5110323;27;20438;-72
2021/10/20 10:40:08;;;;;;;15.50;10.13;;;;;;;;;;5110586;28;20030;-72
2021/10/20 10:42:35;;;;;;;15.63;10.43;;;;;;;;;;5110151;28;20418;-72
2021/10/20 10:45:12;;;;;;;11.25;7.00;;;;;;;;;;5109360;28;20034;-72
2021/10/20 10:47:58;;;;;;;11.15;7.45;;;;;;;;;;5108101;28;20031;-72
2021/10/20 10:50:45;;;;;;;37.60;7.43;;;;;;;;;;5109426;28;20016;-71
2021/10/20 10:53:26;;;;;;;11.32;7.82;;;;;;;;;;5109895;28;20020;-73
2021/10/20 10:56:03;;;;;;;19.25;9.38;;;;;;;;;;5110514;28;20024;-71
2021/10/20 10:58:29;;;;;;;21.70;16.33;;;;;;;;;;5110361;28;20035;-72
2021/10/20 11:00:55;;;;;;;14.88;8.63;;;;;;;;;;5109009;28;20069;-71
2021/10/20 11:04:49;;;;;;;10.70;6.32;;;;;;;;;;5110461;27;20393;-72
2021/10/20 11:07:16;;;;;;;9.65;6.43;;;;;;;;;;5110350;28;20032;-72
2021/10/20 11:11:19;;;;;;;27.60;18.40;;;;;;;;;;5110569;27;20997;-68
2021/10/20 11:13:45;;;;;;;12.77;8.90;;;;;;;;;;5110269;28;20086;-72
2021/10/20 11:16:11;;;;;;;10.10;6.40;;;;;;;;;;5109315;28;20019;-71
2021/10/20 11:18:37;;;;;;;9.90;6.45;;;;;;;;;;5111293;28;20353;-72
2021/10/20 11:21:04;;;;;;;10.50;7.00;;;;;;;;;;5110555;28;20020;-72
2021/10/20 11:23:31;;;;;;;14.52;9.82;;;;;;;;;;5108351;28;20028;-72
2021/10/20 11:26:00;;;;;;;11.45;6.57;;;;;;;;;;5109699;28;20460;-72
2021/10/20 11:28:26;;;;;;;9.35;5.97;;;;;;;;;;5110320;28;20028;-72
2021/10/20 11:30:52;;;;;;;9.82;5.20;;;;;;;;;;5110728;28;20483;-70
2021/10/20 11:33:18;;;;;;;11.43;5.82;;;;;;;;;;5110469;28;20024;-70
2021/10/20 11:35:46;;;;;;;11.15;7.45;;;;;;;;;;5092899;28;20028;-70
2021/10/20 11:42:01;;;;;;;10.48;6.18;;;;;;;;;;5109113;27;20465;-70
2021/10/20 11:44:28;;;;;;;8.98;5.15;;;;;;;;;;5110422;28;20035;-69
2021/10/20 11:46:57;;;;;;;24.65;12.02;;;;;;;;;;5109162;28;20023;-71
2021/10/20 11:51:01;;;;;;;16.45;9.85;;;;;;;;;;5100603;27;20385;-70
2021/10/20 11:53:30;;;;;;;9.60;5.88;;;;;;;;;;5110311;28;20023;-73
2021/10/20 11:56:02;;;;;;;13.27;6.18;;;;;;;;;;5110030;28;20023;-70
2021/10/20 11:58:29;;;;;;;18.10;10.20;;;;;;;;;;5110465;28;20020;-72
2021/10/20 12:00:59;;;;;;;8.88;5.63;;;;;;;;;;5109094;28;20406;-70
2021/10/20 12:03:33;;;;;;;9.15;5.97;;;;;;;;;;5109564;28;20102;-70
2021/10/20 12:06:00;;;;;;;12.07;7.75;;;;;;;;;;5110461;28;20095;-71
2021/10/20 12:09:24;;;;;;;10.23;6.50;;;;;;;;;;5110146;27;20906;-71
2021/10/20 12:11:50;;;;;;;9.07;5.28;;;;;;;;;;5110945;28;20062;-73
2021/10/20 12:14:19;;;;;;;16.83;10.50;;;;;;;;;;5104991;28;20029;-69
2021/10/20 12:16:47;;;;;;;12.82;7.18;;;;;;;;;;5090237;28;20027;-72
2021/10/20 12:19:15;;;;;;;9.05;5.95;;;;;;;;;;5107970;28;20101;-72
2021/10/20 12:21:42;;;;;;;8.82;5.25;;;;;;;;;;5108497;28;20110;-73
2021/10/20 12:24:09;;;;;;;18.88;10.02;;;;;;;;;;5108706;28;20472;-72
2021/10/20 12:26:38;;;;;;;20.27;10.30;;;;;;;;;;5108016;28;20119;-72
2021/10/20 12:29:06;;;;;;;49.88;28.02;;;;;;;;;;5107717;28;20050;-72
2021/10/20 12:31:32;;;;;;;15.05;7.78;;;;;;;;;;5108054;28;20016;-69
2021/10/20 12:33:58;;;;;;;8.95;5.75;;;;;;;;;;5108392;28;20537;-70
2021/10/20 12:36:25;;;;;;;8.50;5.30;;;;;;;;;;5109280;28;20031;-69
2021/10/20 12:38:52;;;;;;;12.48;7.88;;;;;;;;;;5107573;28;20016;-70
2021/10/20 12:41:37;;;;;;;9.23;5.90;;;;;;;;;;5108029;28;20016;-70
2021/10/20 12:44:04;;;;;;;10.30;6.53;;;;;;;;;;5108065;28;20103;-71
2021/10/20 12:46:32;;;;;;;9.38;5.57;;;;;;;;;;5108312;28;20020;-72
2021/10/20 12:48:59;;;;;;;17.77;10.25;;;;;;;;;;5109562;28;20480;-71
2021/10/20 12:51:26;;;;;;;12.55;8.20;;;;;;;;;;5109463;28;20107;-70
2021/10/20 12:53:58;;;;;;;9.98;5.40;;;;;;;;;;5108893;28;20027;-69
2021/10/20 12:56:24;;;;;;;8.88;4.88;;;;;;;;;;5096175;28;20024;-70
2021/10/20 12:59:03;;;;;;;17.35;11.15;;;;;;;;;;5089262;28;20075;-71
2021/10/20 13:01:29;;;;;;;13.10;8.40;;;;;;;;;;5088013;28;20408;-67
2021/10/20 13:03:55;;;;;;;13.63;9.38;;;;;;;;;;5108989;28;20024;-68
2021/10/20 13:06:22;;;;;;;15.07;10.70;;;;;;;;;;5106619;28;20024;-66
2021/10/20 13:08:50;;;;;;;24.40;18.45;;;;;;;;;;5089263;28;20496;-68
2021/10/20 13:11:16;;;;;;;35.42;27.33;;;;;;;;;;5096637;28;20031;-68
2021/10/20 13:13:43;;;;;;;25.20;17.88;;;;;;;;;;5107976;28;20090;-68
2021/10/20 13:16:09;;;;;;;22.13;14.90;;;;;;;;;;5107770;28;20047;-68
2021/10/20 13:18:39;;;;;;;17.13;10.70;;;;;;;;;;5108239;28;20028;-68
2021/10/20 13:21:05;;;;;;;9.32;6.70;;;;;;;;;;5095341;28;20540;-68
2021/10/20 13:23:35;;;;;;;8.15;5.13;;;;;;;;;;5096327;28;20024;-68
2021/10/20 13:26:03;;;;;;;10.30;6.45;;;;;;;;;;5096150;28;20118;-68
2021/10/20 13:28:29;;;;;;;23.10;16.33;;;;;;;;;;5095582;28;20036;-68
2021/10/20 13:30:55;;;;;;;13.00;6.88;;;;;;;;;;5096106;28;20016;-67
2021/10/20 13:33:21;;;;;;;9.63;6.03;;;;;;;;;;5096188;28;20357;-66
2021/10/20 13:35:48;;;;;;;10.18;6.72;;;;;;;;;;5095401;28;20016;-66
2021/10/20 13:38:17;;;;;;;19.40;13.73;;;;;;;;;;5095053;28;20028;-68
2021/10/20 13:40:43;;;;;;;12.15;8.77;;;;;;;;;;5096159;28;20028;-66
2021/10/20 13:43:09;;;;;;;9.48;5.95;;;;;;;;;;5095480;28;20035;-68
2021/10/20 13:45:35;;;;;;;8.50;5.10;;;;;;;;;;5095634;28;20020;-67
2021/10/20 13:48:02;;;;;;;14.45;9.02;;;;;;;;;;5095018;28;20051;-67
2021/10/20 13:50:28;;;;;;;30.02;19.27;;;;;;;;;;5092998;28;20111;-67
2021/10/20 13:52:54;;;;;;;19.88;15.23;;;;;;;;;;5094387;28;20020;-69
2021/10/20 13:55:21;;;;;;;12.25;8.10;;;;;;;;;;5095167;28;20028;-67
2021/10/20 13:57:47;;;;;;;12.35;9.23;;;;;;;;;;5095300;28;20016;-67
2021/10/20 14:00:14;;;;;;;11.60;7.40;;;;;;;;;;5095634;28;20085;-67
2021/10/20 14:02:40;;;;;;;7.97;5.25;;;;;;;;;;5095018;28;20020;-67
2021/10/20 14:05:07;;;;;;;18.45;12.07;;;;;;;;;;5095560;28;20024;-67
2021/10/20 14:07:33;;;;;;;12.38;8.70;;;;;;;;;;5095159;28;20109;-67
2021/10/20 14:10:01;;;;;;;15.07;11.43;;;;;;;;;;5095361;28;20033;-67
2021/10/20 14:12:28;;;;;;;14.90;9.27;;;;;;;;;;5095283;28;20444;-66
2021/10/20 14:14:55;;;;;;;11.23;6.95;;;;;;;;;;5095180;28;20036;-68
2021/10/20 14:17:22;;;;;;;22.95;14.60;;;;;;;;;;5094912;28;20380;-68
2021/10/20 14:19:48;;;;;;;24.80;13.18;;;;;;;;;;5095062;28;20023;-67
2021/10/20 14:22:15;;;;;;;31.52;16.80;;;;;;;;;;5095229;28;20487;-67
2021/10/20 14:24:41;;;;;;;15.93;9.30;;;;;;;;;;5094897;28;20465;-67
2021/10/20 14:27:07;;;;;;;12.07;6.82;;;;;;;;;;5093803;28;20103;-67
2021/10/20 14:29:34;;;;;;;9.98;6.00;;;;;;;;;;5095068;28;20028;-67
2021/10/20 14:32:01;;;;;;;9.90;5.85;;;;;;;;;;5086445;28;20009;-68
2021/10/20 14:34:27;;;;;;;10.57;6.80;;;;;;;;;;5089557;28;20031;-66
2021/10/20 14:36:53;;;;;;;12.77;8.13;;;;;;;;;;5074594;28;20429;-67
2021/10/20 14:39:20;;;;;;;24.02;11.85;;;;;;;;;;5074173;28;20028;-66
2021/10/20 14:41:46;;;;;;;17.00;10.85;;;;;;;;;;5077069;28;20840;-67
2021/10/20 14:44:14;;;;;;;19.35;10.70;;;;;;;;;;5094318;28;20032;-66
2021/10/20 14:46:41;;;;;;;15.13;10.07;;;;;;;;;;5094636;28;20099;-66
2021/10/20 14:49:08;;;;;;;25.65;13.35;;;;;;;;;;5094510;28;20214;-66
2021/10/20 14:51:35;;;;;;;17.67;9.70;;;;;;;;;;5093964;28;20024;-66
2021/10/20 14:54:02;;;;;;;17.42;10.00;;;;;;;;;;5094533;28;20031;-66
2021/10/20 14:56:28;;;;;;;17.88;9.80;;;;;;;;;;5094144;28;20055;-67